Ship Status Report: callsign WZW5960

sailwx.info

Track history (hours):
 
Tides and Currents Weather Stations Pressure Air Temp Water Temp Dewpoint Dewpoint Depression Visibility Wind Speed Wind Dir Waves Ship Positions

Callsign WZW5960 (name unknown)

Owner: NORFOLK DREDGING CO, CHESAPEAKE, VA. More information available from US FCC via Universal Licensing System and Coast Guard Vessel Documentation Center.

Last reported at 2017-Nov-11 20:08 UTC. Time now 2017-Nov-20 11:58 UTC.
Position N 36°43' W 076°14'.
Warning: this ship's position is 8 days out of date.

Length 20 m; draft 3 m.

Type: Tug. MMSI: 367473160.

Date/timePositionNaut miles runAvg speedWind from/ knotsBaromVisibWave heightAir tempDewpointWater temp
2017-Nov-11 20:08N 36°43' W 076°14'1 4.2
2017-Nov-11 20:00N 36°43' W 076°15'0 0.7
2017-Nov-11 19:30N 36°43' W 076°15'0 0.1
2017-Nov-11 18:59N 36°43' W 076°15'2 4.3
2017-Nov-11 18:30N 36°44' W 076°17'2 4.9
2017-Nov-11 18:00N 36°46' W 076°18'4 7.3
2017-Nov-11 17:30N 36°50' W 076°18'1 2.8
2017-Nov-11 17:00N 36°49' W 076°17'1 2.0
2017-Nov-11 16:30N 36°48' W 076°18'0 0.0
2017-Nov-11 16:00N 36°48' W 076°18'0 0.0
2017-Nov-11 15:30N 36°48' W 076°18'0 0.0
2017-Nov-11 15:00N 36°48' W 076°18'0 0.0
2017-Nov-11 14:30N 36°48' W 076°18'0 0.0
2017-Nov-11 14:00N 36°48' W 076°18'0 0.1
2017-Nov-11 13:30N 36°48' W 076°18'0 0.0
2017-Nov-11 13:00N 36°48' W 076°18'0 0.0
2017-Nov-11 12:30N 36°48' W 076°18'0 0.0
2017-Nov-11 12:00N 36°48' W 076°18'0 0.0
2017-Nov-11 11:30N 36°48' W 076°18'0 0.1
2017-Nov-11 11:00N 36°48' W 076°18'1 1.8
2017-Nov-11 10:30N 36°47' W 076°18'1 2.2
2017-Nov-11 10:00N 36°46' W 076°18'1 1.5
2017-Nov-11 09:30N 36°45' W 076°18'0 0.0
2017-Nov-11 09:00N 36°45' W 076°18'0 0.1
2017-Nov-11 08:30N 36°45' W 076°18'1 1.5
2017-Nov-11 08:00N 36°45' W 076°18'0 0.0
2017-Nov-11 07:30N 36°45' W 076°18'2 3.2
2017-Nov-11 07:00N 36°44' W 076°16'2 3.2
2017-Nov-11 06:30N 36°43' W 076°14'  
2017-Nov-08 00:05N 36°43' W 076°14'0 2.0
2017-Nov-07 23:59N 36°43' W 076°14'1 2.8
2017-Nov-07 23:29N 36°44' W 076°16'3 6.4
2017-Nov-07 23:00N 36°47' W 076°18'3 5.1
2017-Nov-07 22:30N 36°49' W 076°17'4 7.7
2017-Nov-07 21:58N 36°52' W 076°20'1 2.0
2017-Nov-07 21:30N 36°52' W 076°20'3 6.0
2017-Nov-07 21:00N 36°49' W 076°17'7 0.1
2017-Nov-05 21:05N 36°43' W 076°14'0 4.0
2017-Nov-05 21:00N 36°43' W 076°15'1 1.0
2017-Nov-05 20:30N 36°44' W 076°15'3 6.4
2017-Nov-05 20:00N 36°46' W 076°18'3 6.6
2017-Nov-05 19:30N 36°49' W 076°17'4 6.3
2017-Nov-05 18:49N 36°53' W 076°20'0 0.6
2017-Nov-05 18:23N 36°52' W 076°20'0 0.1
2017-Nov-05 18:00N 36°52' W 076°20'0 0.9
2017-Nov-05 17:30N 36°52' W 076°20'2 4.8
2017-Nov-05 17:00N 36°51' W 076°18'3 5.3
2017-Nov-05 16:30N 36°48' W 076°18'2 3.2
2017-Nov-05 16:00N 36°46' W 076°18'2 3.5
2017-Nov-05 15:30N 36°45' W 076°18'2 3.3
2017-Nov-05 15:00N 36°44' W 076°16'1 1.7
2017-Nov-05 14:18N 36°43' W 076°15'0 1.3
2017-Nov-05 14:00N 36°43' W 076°14'0 0.0
2017-Nov-03 23:05N 36°43' W 076°14'0 4.2
2017-Nov-03 23:00N 36°43' W 076°14'0 0.3
2017-Nov-03 21:32N 36°43' W 076°15'0 0.0
2017-Nov-03 21:30N 36°43' W 076°15'0 0.5
2017-Nov-03 20:58N 36°44' W 076°15'0 0.7
2017-Nov-03 20:30N 36°44' W 076°16'2 1.2
2017-Nov-03 18:59N 36°44' W 076°18'3 3.8
2017-Nov-03 18:17N 36°43' W 076°15'1 1.9
2017-Nov-03 18:00N 36°43' W 076°14'0 0.0
2017-Nov-03 02:55N 36°43' W 076°14'1 1.9
2017-Nov-03 02:30N 36°43' W 076°15'3 6.6
2017-Nov-03 02:00N 36°46' W 076°18'0 0.8
2017-Nov-03 01:31N 36°46' W 076°18'1 2.5
2017-Nov-03 01:00N 36°45' W 076°18'2 3.3
2017-Nov-03 00:30N 36°44' W 076°16'1 2.3
2017-Nov-02 23:58N 36°43' W 076°15'2 2.7
2017-Nov-02 23:16N 36°43' W 076°13'1 0.1
2017-Nov-02 12:27N 36°43' W 076°12'1 0.0
2017-Nov-01 23:43N 36°43' W 076°13'1 5.7
2017-Nov-01 23:29N 36°43' W 076°14'1 1.5
2017-Nov-01 22:59N 36°44' W 076°15'2 3.6
2017-Nov-01 22:30N 36°44' W 076°17'3 5.3
2017-Nov-01 22:00N 36°47' W 076°18'2 4.1
2017-Nov-01 21:30N 36°49' W 076°17'4 6.2
2017-Nov-01 20:50N 36°52' W 076°20'2 5.2
2017-Nov-01 20:29N 36°54' W 076°21'  
Track history (hours):
 
Tides and Currents Weather Stations Pressure Air Temp Water Temp Dewpoint Dewpoint Depression Visibility Wind Speed Wind Dir Waves Ship Positions

Callsign WZW5960 (name unknown)

Owner: NORFOLK DREDGING CO, CHESAPEAKE, VA. More information available from US FCC via Universal Licensing System and Coast Guard Vessel Documentation Center.

Last reported at 2017-Nov-11 20:08 UTC. Time now 2017-Nov-20 11:58 UTC.
Position N 36°43' W 076°14'.
Warning: this ship's position is 8 days out of date.

Length 20 m; draft 3 m.

Type: Tug. MMSI: 367473160.

Date/timePositionNaut miles runAvg speedWind from/ knotsBaromVisibWave heightAir tempDewpointWater temp
2017-Nov-11 20:08N 36°43' W 076°14'1 4.2
2017-Nov-11 20:00N 36°43' W 076°15'0 0.7
2017-Nov-11 19:30N 36°43' W 076°15'0 0.1
2017-Nov-11 18:59N 36°43' W 076°15'2 4.3
2017-Nov-11 18:30N 36°44' W 076°17'2 4.9
2017-Nov-11 18:00N 36°46' W 076°18'4 7.3
2017-Nov-11 17:30N 36°50' W 076°18'1 2.8
2017-Nov-11 17:00N 36°49' W 076°17'1 2.0
2017-Nov-11 16:30N 36°48' W 076°18'0 0.0
2017-Nov-11 16:00N 36°48' W 076°18'0 0.0
2017-Nov-11 15:30N 36°48' W 076°18'0 0.0
2017-Nov-11 15:00N 36°48' W 076°18'0 0.0
2017-Nov-11 14:30N 36°48' W 076°18'0 0.0
2017-Nov-11 14:00N 36°48' W 076°18'0 0.1
2017-Nov-11 13:30N 36°48' W 076°18'0 0.0
2017-Nov-11 13:00N 36°48' W 076°18'0 0.0
2017-Nov-11 12:30N 36°48' W 076°18'0 0.0
2017-Nov-11 12:00N 36°48' W 076°18'0 0.0
2017-Nov-11 11:30N 36°48' W 076°18'0 0.1
2017-Nov-11 11:00N 36°48' W 076°18'1 1.8
2017-Nov-11 10:30N 36°47' W 076°18'1 2.2
2017-Nov-11 10:00N 36°46' W 076°18'1 1.5
2017-Nov-11 09:30N 36°45' W 076°18'0 0.0
2017-Nov-11 09:00N 36°45' W 076°18'0 0.1
2017-Nov-11 08:30N 36°45' W 076°18'1 1.5
2017-Nov-11 08:00N 36°45' W 076°18'0 0.0
2017-Nov-11 07:30N 36°45' W 076°18'2 3.2
2017-Nov-11 07:00N 36°44' W 076°16'2 3.2
2017-Nov-11 06:30N 36°43' W 076°14'  
2017-Nov-08 00:05N 36°43' W 076°14'0 2.0
2017-Nov-07 23:59N 36°43' W 076°14'1 2.8
2017-Nov-07 23:29N 36°44' W 076°16'3 6.4
2017-Nov-07 23:00N 36°47' W 076°18'3 5.1
2017-Nov-07 22:30N 36°49' W 076°17'4 7.7
2017-Nov-07 21:58N 36°52' W 076°20'1 2.0
2017-Nov-07 21:30N 36°52' W 076°20'3 6.0
2017-Nov-07 21:00N 36°49' W 076°17'7 0.1
2017-Nov-05 21:05N 36°43' W 076°14'0 4.0
2017-Nov-05 21:00N 36°43' W 076°15'1 1.0
2017-Nov-05 20:30N 36°44' W 076°15'3 6.4
2017-Nov-05 20:00N 36°46' W 076°18'3 6.6
2017-Nov-05 19:30N 36°49' W 076°17'4 6.3
2017-Nov-05 18:49N 36°53' W 076°20'0 0.6
2017-Nov-05 18:23N 36°52' W 076°20'0 0.1
2017-Nov-05 18:00N 36°52' W 076°20'0 0.9
2017-Nov-05 17:30N 36°52' W 076°20'2 4.8
2017-Nov-05 17:00N 36°51' W 076°18'3 5.3
2017-Nov-05 16:30N 36°48' W 076°18'2 3.2
2017-Nov-05 16:00N 36°46' W 076°18'2 3.5
2017-Nov-05 15:30N 36°45' W 076°18'2 3.3
2017-Nov-05 15:00N 36°44' W 076°16'1 1.7
2017-Nov-05 14:18N 36°43' W 076°15'0 1.3
2017-Nov-05 14:00N 36°43' W 076°14'0 0.0
2017-Nov-03 23:05N 36°43' W 076°14'0 4.2
2017-Nov-03 23:00N 36°43' W 076°14'0 0.3
2017-Nov-03 21:32N 36°43' W 076°15'0 0.0
2017-Nov-03 21:30N 36°43' W 076°15'0 0.5
2017-Nov-03 20:58N 36°44' W 076°15'0 0.7
2017-Nov-03 20:30N 36°44' W 076°16'2 1.2
2017-Nov-03 18:59N 36°44' W 076°18'3 3.8
2017-Nov-03 18:17N 36°43' W 076°15'1 1.9
2017-Nov-03 18:00N 36°43' W 076°14'0 0.0
2017-Nov-03 02:55N 36°43' W 076°14'1 1.9
2017-Nov-03 02:30N 36°43' W 076°15'3 6.6
2017-Nov-03 02:00N 36°46' W 076°18'0 0.8
2017-Nov-03 01:31N 36°46' W 076°18'1 2.5
2017-Nov-03 01:00N 36°45' W 076°18'2 3.3
2017-Nov-03 00:30N 36°44' W 076°16'1 2.3
2017-Nov-02 23:58N 36°43' W 076°15'2 2.7
2017-Nov-02 23:16N 36°43' W 076°13'1 0.1
2017-Nov-02 12:27N 36°43' W 076°12'1 0.0
2017-Nov-01 23:43N 36°43' W 076°13'1 5.7
2017-Nov-01 23:29N 36°43' W 076°14'1 1.5
2017-Nov-01 22:59N 36°44' W 076°15'2 3.6
2017-Nov-01 22:30N 36°44' W 076°17'3 5.3
2017-Nov-01 22:00N 36°47' W 076°18'2 4.1
2017-Nov-01 21:30N 36°49' W 076°17'4 6.2
2017-Nov-01 20:50N 36°52' W 076°20'2 5.2
2017-Nov-01 20:29N 36°54' W 076°21'  

Dump ship's entire track history